Time;durP1;ratioP1;P1;durP2;ratioP2;P2;SDS_P1;SDS_P2;PMS_P1;PMS_P2;Temp;Humidity;BMP_temperature;BMP_pressure;BME280_temperature;BME280_humidity;BME280_pressure;Samples;Min_cycle;Max_cycle;Signal;HPM_P1;HPM_P2
2023/08/04 00:00:09;;;;;;;13.10;2.78;;;16.50;99.90;;;;;;5060217;28;20035;-77
2023/08/04 00:02:36;;;;;;;9.70;2.28;;;16.50;99.90;;;;;;5082268;28;20102;-77
2023/08/04 00:05:02;;;;;;;9.77;2.50;;;16.40;99.90;;;;;;5048923;28;20032;-77
2023/08/04 00:07:28;;;;;;;10.30;2.65;;;16.40;99.90;;;;;;5064887;28;20250;-77
2023/08/04 00:09:54;;;;;;;9.73;2.60;;;16.40;99.90;;;;;;5050745;28;20045;-77
2023/08/04 00:12:19;;;;;;;11.52;2.67;;;16.40;99.90;;;;;;5079377;28;20086;-77
2023/08/04 00:14:48;;;;;;;8.75;2.40;;;16.40;99.90;;;;;;5073216;28;20039;-77
2023/08/04 00:17:15;;;;;;;11.27;2.72;;;16.40;99.90;;;;;;5040976;28;20096;-77
2023/08/04 00:19:41;;;;;;;10.30;2.72;;;16.40;99.90;;;;;;5082758;28;20196;-77
2023/08/04 00:22:07;;;;;;;10.20;2.70;;;16.40;99.90;;;;;;5081290;28;20024;-77
2023/08/04 00:24:33;;;;;;;10.68;2.55;;;16.30;99.90;;;;;;5067853;28;20024;-77
2023/08/04 00:27:00;;;;;;;11.75;3.03;;;16.30;99.90;;;;;;5079405;28;20073;-77
2023/08/04 00:29:26;;;;;;;12.20;3.00;;;16.40;99.90;;;;;;5074994;28;20039;-77
2023/08/04 00:31:52;;;;;;;8.45;2.58;;;16.30;99.90;;;;;;5080365;28;20031;-77
2023/08/04 00:34:17;;;;;;;11.15;2.78;;;16.30;99.90;;;;;;5069811;28;20865;-78
2023/08/04 00:36:47;;;;;;;13.32;2.58;;;16.30;99.90;;;;;;5076791;28;20086;-77
2023/08/04 00:39:16;;;;;;;9.73;2.38;;;16.30;99.90;;;;;;5063689;28;20032;-77
2023/08/04 00:41:42;;;;;;;8.43;2.20;;;16.30;99.90;;;;;;5058808;28;20044;-77
2023/08/04 00:44:09;;;;;;;9.05;2.60;;;16.20;99.90;;;;;;5063124;28;20189;-77
2023/08/04 00:46:36;;;;;;;9.65;2.30;;;16.20;99.90;;;;;;5061054;28;20078;-77
2023/08/04 00:49:03;;;;;;;8.18;2.40;;;16.20;99.90;;;;;;5061890;28;20059;-77
2023/08/04 00:51:33;;;;;;;7.25;2.42;;;16.20;99.90;;;;;;5080349;28;20238;-77
2023/08/04 00:53:59;;;;;;;7.40;2.15;;;16.20;99.90;;;;;;5080761;27;20150;-77
2023/08/04 00:56:28;;;;;;;6.40;2.20;;;16.20;99.90;;;;;;5081464;28;20103;-77
2023/08/04 00:58:54;;;;;;;9.02;2.00;;;16.20;99.90;;;;;;5055837;28;20266;-77
2023/08/04 01:01:19;;;;;;;8.45;2.30;;;16.10;99.90;;;;;;5028781;28;20035;-77
2023/08/04 01:03:46;;;;;;;8.32;2.25;;;16.10;99.90;;;;;;5059032;28;20038;-77
2023/08/04 01:06:31;;;;;;;10.25;2.80;;;16.10;99.90;;;;;;5056183;28;20170;-77
2023/08/04 01:09:15;;;;;;;8.80;2.25;;;16.10;99.90;;;;;;5063948;28;20081;-77
2023/08/04 01:11:53;;;;;;;7.35;2.40;;;16.00;99.90;;;;;;5078501;28;20031;-77
2023/08/04 01:14:20;;;;;;;8.75;2.50;;;16.00;99.90;;;;;;5063061;28;20043;-77
2023/08/04 01:16:45;;;;;;;6.30;1.95;;;16.00;99.90;;;;;;5039613;28;20033;-77
2023/08/04 01:19:11;;;;;;;8.43;2.20;;;16.00;99.90;;;;;;5075967;28;20100;-77
2023/08/04 01:21:41;;;;;;;9.98;2.55;;;16.00;99.90;;;;;;5060860;28;20035;-77
2023/08/04 01:24:07;;;;;;;8.35;2.40;;;16.00;99.90;;;;;;5078016;28;20070;-77
2023/08/04 01:26:37;;;;;;;9.27;2.55;;;16.00;99.90;;;;;;5063833;28;20273;-77
2023/08/04 01:29:05;;;;;;;8.95;2.22;;;16.00;99.90;;;;;;5077213;28;20064;-77
2023/08/04 01:31:31;;;;;;;12.50;2.75;;;16.00;99.90;;;;;;5053720;28;20282;-77
2023/08/04 01:33:57;;;;;;;8.43;2.55;;;16.00;99.90;;;;;;5055318;28;20048;-77
2023/08/04 01:36:23;;;;;;;8.15;2.42;;;16.00;99.90;;;;;;5064850;28;20044;-77
2023/08/04 01:38:48;;;;;;;10.13;2.58;;;16.00;99.90;;;;;;5041717;28;20051;-77
2023/08/04 01:41:14;;;;;;;10.50;2.88;;;16.00;99.90;;;;;;5058790;28;20642;-77
2023/08/04 01:43:40;;;;;;;10.27;2.63;;;16.00;99.90;;;;;;5076776;28;20025;-77
2023/08/04 01:46:05;;;;;;;11.70;2.65;;;16.00;99.90;;;;;;5035454;28;20060;-77
2023/08/04 01:48:31;;;;;;;10.13;2.83;;;16.00;99.90;;;;;;5076443;28;20123;-77
2023/08/04 01:50:57;;;;;;;8.65;2.85;;;16.00;99.90;;;;;;5050854;28;20032;-77
2023/08/04 01:53:22;;;;;;;10.32;2.55;;;16.00;99.90;;;;;;5050577;28;20044;-77
2023/08/04 01:55:48;;;;;;;13.18;3.00;;;16.00;99.90;;;;;;5048690;28;20032;-77
2023/08/04 01:58:14;;;;;;;8.95;2.28;;;16.00;99.90;;;;;;5057782;28;20033;-77
2023/08/04 02:00:39;;;;;;;9.60;2.38;;;16.00;99.90;;;;;;5065139;28;20290;-77
2023/08/04 02:03:05;;;;;;;9.02;2.33;;;16.00;99.90;;;;;;5068415;28;20025;-77
2023/08/04 02:05:32;;;;;;;10.68;2.40;;;16.00;99.90;;;;;;5053236;28;20029;-77
2023/08/04 02:07:58;;;;;;;9.20;2.15;;;16.00;99.90;;;;;;5057489;28;20104;-77
2023/08/04 02:10:23;;;;;;;10.77;2.50;;;16.00;99.90;;;;;;5059654;28;20021;-77
2023/08/04 02:12:49;;;;;;;8.40;2.40;;;16.00;99.90;;;;;;5075477;28;20474;-77
2023/08/04 02:15:15;;;;;;;12.43;2.55;;;15.90;99.90;;;;;;5069875;28;20070;-77
2023/08/04 02:17:40;;;;;;;8.90;2.50;;;15.90;99.90;;;;;;5069493;28;20035;-77
2023/08/04 02:20:06;;;;;;;12.30;2.20;;;15.90;99.90;;;;;;5065091;28;20111;-77
2023/08/04 02:22:32;;;;;;;10.43;2.50;;;15.90;99.90;;;;;;5041868;28;20066;-77
2023/08/04 02:24:58;;;;;;;8.80;2.20;;;16.00;99.90;;;;;;5057384;28;20043;-77
2023/08/04 02:27:23;;;;;;;9.15;2.10;;;15.90;99.90;;;;;;5055848;28;20127;-77
2023/08/04 02:29:49;;;;;;;8.70;2.30;;;16.00;99.90;;;;;;5052951;28;20040;-77
2023/08/04 02:32:16;;;;;;;9.73;2.03;;;15.90;99.90;;;;;;5033352;28;20051;-77
2023/08/04 02:34:41;;;;;;;7.53;2.10;;;15.90;99.90;;;;;;5028346;28;20201;-77
2023/08/04 02:37:07;;;;;;;11.57;2.70;;;15.90;99.90;;;;;;5075403;28;20025;-77
2023/08/04 02:39:36;;;;;;;9.15;2.10;;;16.00;99.90;;;;;;5076531;28;20209;-77
2023/08/04 02:42:02;;;;;;;7.68;2.00;;;15.90;99.90;;;;;;5069577;28;20032;-77
2023/08/04 02:44:28;;;;;;;8.02;2.15;;;15.90;99.90;;;;;;5070790;28;20135;-78
2023/08/04 02:46:54;;;;;;;6.93;1.90;;;15.90;99.90;;;;;;5019534;28;20032;-77
2023/08/04 02:49:19;;;;;;;7.32;2.10;;;15.90;99.90;;;;;;5020040;28;20064;-77
2023/08/04 02:51:45;;;;;;;11.57;2.50;;;15.90;99.90;;;;;;5038704;28;20028;-77
2023/08/04 02:54:11;;;;;;;6.97;2.00;;;15.90;99.90;;;;;;5052628;28;20051;-78
2023/08/04 02:56:36;;;;;;;9.93;2.50;;;15.90;99.90;;;;;;5047393;28;20033;-77
2023/08/04 02:59:02;;;;;;;6.07;1.80;;;15.90;99.90;;;;;;5071934;28;20041;-77
2023/08/04 03:01:28;;;;;;;7.20;2.10;;;15.90;99.90;;;;;;5043874;28;20103;-77
2023/08/04 03:03:54;;;;;;;12.95;2.42;;;15.80;99.90;;;;;;5059379;28;20041;-77
2023/08/04 03:06:19;;;;;;;8.57;2.38;;;15.90;99.90;;;;;;5025710;28;20285;-77
2023/08/04 03:08:45;;;;;;;7.38;2.28;;;15.80;99.90;;;;;;5057092;28;20096;-77
2023/08/04 03:11:11;;;;;;;7.88;2.40;;;15.80;99.90;;;;;;5061603;28;20032;-77
2023/08/04 03:13:38;;;;;;;9.40;2.13;;;15.80;99.90;;;;;;5051204;28;20075;-77
2023/08/04 03:16:05;;;;;;;8.80;2.40;;;15.80;99.90;;;;;;5053253;28;20036;-77
2023/08/04 03:18:31;;;;;;;8.60;2.40;;;15.70;99.90;;;;;;5058610;28;20027;-77
2023/08/04 03:21:01;;;;;;;6.68;2.20;;;15.70;99.90;;;;;;5076736;28;20107;-77
2023/08/04 03:23:26;;;;;;;8.40;2.10;;;15.70;99.90;;;;;;5059131;28;20028;-77
2023/08/04 03:25:52;;;;;;;7.10;1.88;;;15.70;99.90;;;;;;5071103;28;20032;-77
2023/08/04 03:28:17;;;;;;;10.00;2.70;;;15.70;99.90;;;;;;5077087;28;20260;-77
2023/08/04 03:30:43;;;;;;;7.90;2.30;;;15.70;99.90;;;;;;5056526;28;20273;-77
2023/08/04 03:33:09;;;;;;;11.23;2.33;;;15.60;99.90;;;;;;5063390;28;20020;-77
2023/08/04 03:35:35;;;;;;;8.82;2.17;;;15.60;99.90;;;;;;5062326;28;20056;-77
2023/08/04 03:38:03;;;;;;;7.50;2.03;;;15.60;99.90;;;;;;5058292;28;20024;-77
2023/08/04 03:40:28;;;;;;;12.27;2.40;;;15.60;99.90;;;;;;5076951;28;20138;-77
2023/08/04 03:42:54;;;;;;;12.07;2.60;;;15.50;99.90;;;;;;5040555;28;20063;-77
2023/08/04 03:45:20;;;;;;;6.60;1.90;;;15.50;99.90;;;;;;5059272;28;20072;-77
2023/08/04 03:47:45;;;;;;;6.70;2.10;;;15.50;99.90;;;;;;5038114;28;20024;-77
2023/08/04 03:50:11;;;;;;;6.78;1.85;;;15.50;99.90;;;;;;5077480;28;20302;-77
2023/08/04 03:52:37;;;;;;;5.97;2.00;;;15.50;99.90;;;;;;5047185;28;20258;-77
2023/08/04 03:55:07;;;;;;;8.15;2.15;;;15.50;99.90;;;;;;5078493;28;20068;-77
2023/08/04 03:57:33;;;;;;;9.68;2.00;;;15.50;99.90;;;;;;5056436;28;20037;-77
2023/08/04 03:59:58;;;;;;;9.93;2.20;;;15.50;99.90;;;;;;5072135;28;20032;-77
2023/08/04 04:02:24;;;;;;;9.75;2.80;;;15.40;99.90;;;;;;5060351;28;20024;-77
2023/08/04 04:04:50;;;;;;;8.30;2.05;;;15.50;99.90;;;;;;5077357;28;20190;-77
2023/08/04 04:07:15;;;;;;;8.18;2.20;;;15.50;99.90;;;;;;5055522;28;20045;-77
2023/08/04 04:09:41;;;;;;;7.72;2.10;;;15.50;99.90;;;;;;5041806;28;20029;-77
2023/08/04 04:12:07;;;;;;;7.90;2.25;;;15.50;99.90;;;;;;5078928;28;20028;-77
2023/08/04 04:14:33;;;;;;;7.50;2.20;;;15.50;99.90;;;;;;5044694;28;20305;-77
2023/08/04 04:16:59;;;;;;;7.93;2.25;;;15.50;99.90;;;;;;5044082;28;20070;-77
2023/08/04 04:19:25;;;;;;;9.35;2.20;;;15.50;99.90;;;;;;5042632;28;20039;-78
2023/08/04 04:21:51;;;;;;;7.40;2.05;;;15.50;99.90;;;;;;5074479;28;20190;-77
2023/08/04 04:24:16;;;;;;;6.25;2.00;;;15.50;99.90;;;;;;5039504;28;20146;-77
2023/08/04 04:26:42;;;;;;;5.93;1.98;;;15.50;99.90;;;;;;5073515;28;20041;-77
2023/08/04 04:29:08;;;;;;;6.97;2.22;;;15.50;99.90;;;;;;5054083;28;20028;-78
2023/08/04 04:31:33;;;;;;;4.97;1.98;;;15.40;99.90;;;;;;5054254;28;20325;-77
2023/08/04 04:33:59;;;;;;;6.28;2.10;;;15.40;99.90;;;;;;5040259;28;20364;-78
2023/08/04 04:36:25;;;;;;;6.95;1.95;;;15.30;99.90;;;;;;5037224;28;20056;-77
2023/08/04 04:38:50;;;;;;;5.95;2.00;;;15.20;99.90;;;;;;5053751;28;20070;-77
2023/08/04 04:41:16;;;;;;;5.68;2.00;;;15.30;99.90;;;;;;5041891;28;20230;-77
2023/08/04 04:43:42;;;;;;;6.10;2.08;;;16.10;99.90;;;;;;5037717;28;20032;-77
2023/08/04 04:46:08;;;;;;;6.93;2.25;;;15.20;99.90;;;;;;5058369;28;20047;-77
2023/08/04 04:48:33;;;;;;;6.75;2.10;;;15.20;99.90;;;;;;5056839;28;20044;-77
2023/08/04 04:50:59;;;;;;;5.20;2.08;;;15.20;99.90;;;;;;5038236;28;20048;-77
2023/08/04 04:53:25;;;;;;;5.15;1.73;;;15.20;99.90;;;;;;5055413;28;20028;-77
2023/08/04 04:55:50;;;;;;;5.85;1.90;;;15.30;99.90;;;;;;5047748;28;20126;-77
2023/08/04 04:58:16;;;;;;;6.05;2.05;;;15.30;99.90;;;;;;5040098;28;20032;-77
2023/08/04 05:00:42;;;;;;;6.60;2.20;;;15.40;99.90;;;;;;5042508;28;20035;-77
2023/08/04 05:03:10;;;;;;;6.13;2.20;;;15.40;99.90;;;;;;5055860;28;20116;-77
2023/08/04 05:05:36;;;;;;;6.55;2.20;;;15.40;99.90;;;;;;5040146;28;20495;-77
2023/08/04 05:08:03;;;;;;;6.00;2.33;;;15.50;99.90;;;;;;5059859;28;20044;-77
2023/08/04 05:10:28;;;;;;;6.80;2.10;;;15.50;99.90;;;;;;5076000;28;20064;-77
2023/08/04 05:12:54;;;;;;;7.72;2.38;;;15.50;99.90;;;;;;5055739;28;20396;-77
2023/08/04 05:15:20;;;;;;;6.60;2.08;;;15.60;99.90;;;;;;5052371;28;20067;-77
2023/08/04 05:17:46;;;;;;;7.25;2.10;;;15.60;99.90;;;;;;5074670;28;20261;-77
2023/08/04 05:20:12;;;;;;;7.00;2.03;;;15.60;99.90;;;;;;5052523;28;20033;-77
2023/08/04 05:22:39;;;;;;;8.18;2.50;;;15.70;99.90;;;;;;5050096;28;20051;-77
2023/08/04 05:25:05;;;;;;;5.68;2.10;;;15.70;99.90;;;;;;5072964;28;20032;-77
2023/08/04 05:27:31;;;;;;;6.45;2.40;;;15.80;99.90;;;;;;5071786;28;20044;-78
2023/08/04 05:29:57;;;;;;;8.80;2.38;;;15.80;99.90;;;;;;5057979;28;20321;-77
2023/08/04 05:32:22;;;;;;;7.80;2.40;;;15.80;99.90;;;;;;5076523;28;20072;-77
2023/08/04 05:34:48;;;;;;;7.70;2.17;;;15.80;99.90;;;;;;5025144;28;20073;-77
2023/08/04 05:37:14;;;;;;;9.63;2.75;;;15.90;99.90;;;;;;5046526;28;20740;-79
2023/08/04 05:39:40;;;;;;;10.15;2.85;;;15.90;99.90;;;;;;5025067;28;20131;-77
2023/08/04 05:42:06;;;;;;;8.98;2.75;;;16.00;99.90;;;;;;5036254;28;20125;-77
2023/08/04 05:44:32;;;;;;;8.57;2.60;;;16.00;99.90;;;;;;5068388;28;20068;-77
2023/08/04 05:46:59;;;;;;;7.22;2.70;;;16.10;99.90;;;;;;5042775;28;20181;-77
2023/08/04 05:49:24;;;;;;;7.47;2.60;;;16.10;99.90;;;;;;5050113;28;20036;-78
2023/08/04 05:51:50;;;;;;;8.48;2.58;;;16.10;99.90;;;;;;5077855;28;20029;-77
2023/08/04 05:54:16;;;;;;;8.73;2.80;;;16.10;99.90;;;;;;5060586;27;20086;-77
2023/08/04 05:56:41;;;;;;;7.72;2.63;;;16.20;99.90;;;;;;5047187;28;20043;-77
2023/08/04 05:59:07;;;;;;;8.45;2.95;;;16.20;99.90;;;;;;5077668;28;20085;-77
2023/08/04 06:01:33;;;;;;;8.80;2.55;;;16.20;99.90;;;;;;5063556;28;20044;-77
2023/08/04 06:03:59;;;;;;;8.15;2.88;;;16.20;99.90;;;;;;5061559;28;20086;-77
2023/08/04 06:06:25;;;;;;;7.30;2.50;;;16.20;99.90;;;;;;5063049;28;20277;-77
2023/08/04 06:08:50;;;;;;;8.63;2.70;;;16.30;99.90;;;;;;5062651;28;20075;-77
2023/08/04 06:11:16;;;;;;;6.40;2.33;;;16.30;99.90;;;;;;5079237;28;20163;-77
2023/08/04 06:13:42;;;;;;;11.13;2.70;;;16.30;99.90;;;;;;5061706;28;20032;-77
2023/08/04 06:16:07;;;;;;;9.23;2.90;;;16.40;99.90;;;;;;5080983;28;20076;-77
2023/08/04 06:18:33;;;;;;;7.63;3.05;;;16.40;99.90;;;;;;5058267;28;20101;-77
2023/08/04 06:20:59;;;;;;;7.63;2.40;;;16.50;99.90;;;;;;5058581;28;20024;-77
2023/08/04 06:23:25;;;;;;;6.45;2.40;;;16.50;99.90;;;;;;5044795;28;20451;-77
2023/08/04 06:25:50;;;;;;;7.10;2.30;;;16.50;99.90;;;;;;5058977;28;20054;-77
2023/08/04 06:28:16;;;;;;;7.70;2.55;;;16.50;99.90;;;;;;5031494;28;20055;-77
2023/08/04 06:30:42;;;;;;;6.70;2.33;;;16.50;99.90;;;;;;5053431;28;20041;-77
2023/08/04 06:33:08;;;;;;;7.70;2.53;;;16.60;99.90;;;;;;5058661;28;20048;-77
2023/08/04 06:35:34;;;;;;;7.70;2.58;;;16.60;99.90;;;;;;5035961;28;20334;-77
2023/08/04 06:37:59;;;;;;;9.70;2.60;;;16.60;99.90;;;;;;5050608;28;20029;-77
2023/08/04 06:40:26;;;;;;;8.07;2.60;;;16.60;99.90;;;;;;5056424;28;20118;-77
2023/08/04 06:42:53;;;;;;;7.88;2.30;;;16.70;99.90;;;;;;5070496;28;20293;-77
2023/08/04 06:45:19;;;;;;;8.55;2.45;;;16.70;99.90;;;;;;5078111;28;20044;-77
2023/08/04 06:47:44;;;;;;;9.23;2.47;;;16.80;99.90;;;;;;5040820;28;20041;-77
2023/08/04 06:50:10;;;;;;;10.35;2.53;;;16.80;99.90;;;;;;5060892;28;20100;-77
2023/08/04 06:52:36;;;;;;;9.60;2.42;;;16.90;99.90;;;;;;5062849;28;20059;-77
2023/08/04 06:55:02;;;;;;;7.07;2.25;;;16.90;99.90;;;;;;5079625;28;20036;-77
2023/08/04 06:57:27;;;;;;;7.10;2.13;;;16.90;99.90;;;;;;5078632;28;20040;-77
2023/08/04 06:59:54;;;;;;;5.75;2.15;;;17.00;99.90;;;;;;5044260;28;20032;-77
2023/08/04 07:02:19;;;;;;;8.60;2.65;;;17.00;99.90;;;;;;5074120;28;20189;-77
2023/08/04 07:04:45;;;;;;;7.75;2.10;;;17.00;99.90;;;;;;5047853;28;20187;-77
2023/08/04 07:07:11;;;;;;;7.05;2.20;;;17.10;99.90;;;;;;5080910;28;20214;-77
2023/08/04 07:09:37;;;;;;;7.75;1.95;;;17.10;99.90;;;;;;5062677;28;20040;-78
2023/08/04 07:12:03;;;;;;;8.23;2.30;;;17.20;99.90;;;;;;5058755;28;20223;-77
2023/08/04 07:14:29;;;;;;;9.10;2.58;;;17.20;99.90;;;;;;5076185;28;20226;-77
2023/08/04 07:16:54;;;;;;;8.63;2.65;;;17.30;99.90;;;;;;5076559;28;20032;-77
2023/08/04 07:19:20;;;;;;;7.78;2.45;;;17.40;99.90;;;;;;5029503;28;20063;-77
2023/08/04 07:21:46;;;;;;;7.18;2.20;;;17.20;99.90;;;;;;5059191;28;20032;-77
2023/08/04 07:24:12;;;;;;;7.97;2.30;;;17.50;99.90;;;;;;5078010;27;20044;-79
2023/08/04 07:26:38;;;;;;;8.55;2.58;;;17.50;99.90;;;;;;5075710;28;20028;-79
2023/08/04 07:29:04;;;;;;;10.15;2.70;;;17.50;99.90;;;;;;5051679;28;20043;-78
2023/08/04 07:31:31;;;;;;;9.10;2.08;;;17.60;99.90;;;;;;5078934;28;20024;-79
2023/08/04 07:33:57;;;;;;;8.15;2.28;;;17.60;99.90;;;;;;5079798;28;20301;-79
2023/08/04 07:36:23;;;;;;;8.57;2.25;;;17.60;99.90;;;;;;5080701;28;20050;-78
2023/08/04 07:38:49;;;;;;;7.57;2.20;;;17.70;99.90;;;;;;5061531;28;20040;-78
2023/08/04 07:41:19;;;;;;;9.00;2.47;;;17.60;99.90;;;;;;5080293;28;20060;-78
2023/08/04 07:43:45;;;;;;;8.27;2.47;;;17.70;99.90;;;;;;5079401;28;20108;-78
2023/08/04 07:46:29;;;;;;;7.95;2.40;;;17.60;99.90;;;;;;5047688;28;20038;-78
2023/08/04 07:48:55;;;;;;;6.90;2.38;;;17.60;99.90;;;;;;5059944;28;20277;-78
2023/08/04 07:51:22;;;;;;;12.80;2.65;;;18.00;99.90;;;;;;5061460;28;20021;-78
2023/08/04 07:53:48;;;;;;;10.00;2.40;;;17.50;99.90;;;;;;5082117;28;20024;-78
2023/08/04 07:56:14;;;;;;;6.47;1.92;;;17.60;99.90;;;;;;5044873;28;20339;-78
2023/08/04 07:58:40;;;;;;;8.15;2.00;;;17.60;99.90;;;;;;5040844;28;20033;-78
2023/08/04 08:01:06;;;;;;;7.43;2.10;;;17.50;99.90;;;;;;5077614;28;20039;-78
2023/08/04 08:03:33;;;;;;;7.80;2.25;;;17.40;99.90;;;;;;5079314;28;20020;-79
2023/08/04 08:06:00;;;;;;;8.18;2.30;;;17.30;99.90;;;;;;5057784;28;20035;-79
2023/08/04 08:08:26;;;;;;;7.93;1.90;;;17.20;99.90;;;;;;5074099;28;20190;-78
2023/08/04 08:10:53;;;;;;;6.32;1.70;;;17.10;99.90;;;;;;5064015;28;20038;-79
2023/08/04 08:13:19;;;;;;;6.10;1.70;;;17.00;99.90;;;;;;5063742;28;20048;-78
2023/08/04 08:15:45;;;;;;;6.60;1.70;;;16.90;99.90;;;;;;5063226;28;20039;-79
2023/08/04 08:18:11;;;;;;;7.68;2.15;;;16.80;99.90;;;;;;5064078;28;20103;-79
2023/08/04 08:20:44;;;;;;;5.30;1.70;;;16.80;99.90;;;;;;5055537;28;20308;-79
2023/08/04 08:23:10;;;;;;;6.10;1.77;;;16.80;99.90;;;;;;5093828;27;20119;-79
2023/08/04 08:25:36;;;;;;;8.25;1.95;;;16.80;99.90;;;;;;5064204;28;20091;-79
2023/08/04 08:28:03;;;;;;;6.20;2.00;;;16.80;99.90;;;;;;5076568;28;20075;-79
2023/08/04 08:30:29;;;;;;;11.02;2.38;;;16.90;99.90;;;;;;5052803;28;20051;-79
2023/08/04 08:32:54;;;;;;;8.73;2.25;;;16.90;99.90;;;;;;5076079;28;20071;-79
2023/08/04 08:35:20;;;;;;;8.15;2.05;;;16.90;99.90;;;;;;5059965;28;20094;-79
2023/08/04 08:37:46;;;;;;;7.65;2.33;;;17.00;99.90;;;;;;5077487;28;20091;-79
2023/08/04 08:40:12;;;;;;;6.70;1.83;;;17.10;99.90;;;;;;5077552;28;20166;-79
2023/08/04 08:42:38;;;;;;;7.72;2.00;;;17.20;99.90;;;;;;5061212;27;20020;-79
2023/08/04 08:45:05;;;;;;;8.98;2.08;;;17.20;99.90;;;;;;5078567;28;20305;-79
2023/08/04 08:47:38;;;;;;;8.68;2.15;;;17.40;99.90;;;;;;5069394;28;20024;-79
2023/08/04 08:50:06;;;;;;;5.70;2.03;;;17.60;99.90;;;;;;5078038;28;20163;-79
2023/08/04 08:52:37;;;;;;;8.35;1.92;;;17.80;99.90;;;;;;5077790;28;20309;-79
2023/08/04 08:55:04;;;;;;;8.30;2.67;;;18.10;99.90;;;;;;5080144;28;20035;-79
2023/08/04 08:57:31;;;;;;;8.43;2.33;;;17.80;99.90;;;;;;5042836;28;20025;-79
2023/08/04 09:00:02;;;;;;;7.30;2.28;;;18.30;99.90;;;;;;5057074;28;20082;-79
2023/08/04 09:02:28;;;;;;;9.80;2.17;;;18.20;99.90;;;;;;5073158;28;20115;-78
2023/08/04 09:04:54;;;;;;;10.68;2.72;;;18.10;99.90;;;;;;5077608;28;20031;-79
2023/08/04 09:07:22;;;;;;;12.70;2.70;;;18.00;99.90;;;;;;5046602;28;20028;-79
2023/08/04 09:09:48;;;;;;;9.52;2.50;;;17.90;99.90;;;;;;5064050;28;20059;-79
2023/08/04 09:12:15;;;;;;;9.93;2.90;;;17.90;99.90;;;;;;5043582;28;20051;-79
2023/08/04 09:14:54;;;;;;;9.10;2.88;;;18.00;99.90;;;;;;5045162;28;20033;-78
2023/08/04 09:17:37;;;;;;;7.22;2.30;;;18.00;99.90;;;;;;5080055;28;20113;-78
2023/08/04 09:20:30;;;;;;;10.02;2.35;;;18.10;99.90;;;;;;5078178;28;20044;-78
2023/08/04 09:22:56;;;;;;;7.13;2.38;;;18.30;99.90;;;;;;5076447;28;20085;-78
2023/08/04 09:25:22;;;;;;;10.90;2.72;;;18.50;99.90;;;;;;5068678;28;20036;-78
2023/08/04 09:27:50;;;;;;;8.77;2.33;;;18.60;99.90;;;;;;5076455;28;20209;-79
2023/08/04 09:30:17;;;;;;;7.60;2.05;;;18.80;99.90;;;;;;5070918;28;20043;-78
2023/08/04 09:32:49;;;;;;;8.90;2.25;;;18.80;99.90;;;;;;5076253;27;20082;-78
2023/08/04 09:35:15;;;;;;;7.75;1.73;;;18.90;99.90;;;;;;5078953;28;20092;-78
2023/08/04 09:37:41;;;;;;;7.65;1.90;;;19.00;99.90;;;;;;5061152;28;20035;-78
2023/08/04 09:40:15;;;;;;;6.38;2.03;;;19.10;99.90;;;;;;5073500;28;20109;-78
2023/08/04 09:42:42;;;;;;;8.40;1.90;;;19.10;99.90;;;;;;5078377;28;20023;-78
2023/08/04 09:45:12;;;;;;;8.77;2.42;;;19.10;99.90;;;;;;5036501;27;20043;-79
2023/08/04 09:47:38;;;;;;;9.98;2.35;;;18.90;99.90;;;;;;5062460;28;20056;-79
2023/08/04 09:50:09;;;;;;;8.95;1.90;;;18.80;99.90;;;;;;5043770;28;20032;-79
2023/08/04 09:52:35;;;;;;;11.60;2.77;;;18.60;99.90;;;;;;5056464;28;20031;-79
2023/08/04 09:55:01;;;;;;;9.18;2.40;;;18.40;99.90;;;;;;5055813;28;20090;-79
2023/08/04 09:57:27;;;;;;;10.68;2.50;;;18.40;99.90;;;;;;5046481;28;20084;-78
2023/08/04 09:59:53;;;;;;;11.27;2.47;;;18.50;99.90;;;;;;5052152;28;20361;-79
2023/08/04 10:02:20;;;;;;;11.05;2.67;;;18.70;99.90;;;;;;5058630;28;20176;-78
2023/08/04 10:04:50;;;;;;;9.27;2.65;;;18.70;99.90;;;;;;5053723;28;20040;-79
2023/08/04 10:07:20;;;;;;;10.63;2.65;;;18.70;99.90;;;;;;5059143;28;20056;-78
2023/08/04 10:09:49;;;;;;;13.27;3.22;;;18.70;99.90;;;;;;5043383;28;20108;-79
2023/08/04 10:12:17;;;;;;;9.98;2.42;;;18.70;99.90;;;;;;5078530;28;20040;-78
2023/08/04 10:14:43;;;;;;;9.30;2.42;;;18.90;99.90;;;;;;5062205;28;20031;-79
2023/08/04 10:17:10;;;;;;;9.20;2.60;;;19.00;99.90;;;;;;5077543;28;20030;-78
2023/08/04 10:19:36;;;;;;;7.95;2.15;;;19.00;99.90;;;;;;5076628;28;20105;-78
2023/08/04 10:22:09;;;;;;;11.00;2.20;;;19.00;99.90;;;;;;5079338;28;20329;-78
2023/08/04 10:24:41;;;;;;;8.68;2.13;;;19.00;99.90;;;;;;5063623;28;20032;-78
2023/08/04 10:27:21;;;;;;;6.47;1.85;;;19.10;99.90;;;;;;5077785;28;20052;-78
2023/08/04 10:30:02;;;;;;;6.80;1.85;;;19.30;99.90;;;;;;5067580;28;20038;-78
2023/08/04 10:32:39;;;;;;;7.18;1.75;;;19.30;99.90;;;;;;5059706;28;20119;-78
2023/08/04 10:35:19;;;;;;;10.85;2.33;;;19.40;99.90;;;;;;5079161;28;20115;-78
2023/08/04 10:37:50;;;;;;;6.93;1.80;;;19.50;99.90;;;;;;5058796;28;20276;-79
2023/08/04 10:40:38;;;;;;;7.13;1.67;;;19.60;99.90;;;;;;5058381;28;20117;-78
2023/08/04 10:43:08;;;;;;;5.72;1.65;;;19.80;99.90;;;;;;5072760;28;20116;-78
2023/08/04 10:45:55;;;;;;;5.55;1.70;;;20.00;99.90;;;;;;5076041;28;20042;-78
2023/08/04 10:48:22;;;;;;;7.22;1.80;;;20.20;99.90;;;;;;5057148;28;20031;-78
2023/08/04 10:50:49;;;;;;;8.00;1.80;;;20.30;99.90;;;;;;5042180;28;20042;-78
2023/08/04 10:53:16;;;;;;;7.22;2.03;;;20.20;99.90;;;;;;5057469;28;20033;-78
2023/08/04 10:55:56;;;;;;;7.65;1.70;;;20.10;99.90;;;;;;5072688;28;20127;-78
2023/08/04 10:58:23;;;;;;;7.38;2.10;;;20.20;99.90;;;;;;5059900;28;20051;-78
2023/08/04 11:00:49;;;;;;;6.97;1.88;;;20.40;99.90;;;;;;5055436;28;20066;-78
2023/08/04 11:03:29;;;;;;;7.97;1.77;;;20.30;99.90;;;;;;5057061;28;20044;-79
2023/08/04 11:05:56;;;;;;;6.25;1.73;;;20.20;99.90;;;;;;5073630;28;20031;-79
2023/08/04 11:08:23;;;;;;;7.05;1.63;;;20.30;99.90;;;;;;5075445;28;20158;-79
2023/08/04 11:10:50;;;;;;;6.50;1.85;;;20.30;99.90;;;;;;5055820;28;20033;-79
2023/08/04 11:13:20;;;;;;;7.18;1.80;;;20.10;99.90;;;;;;5076801;27;20091;-79
2023/08/04 11:15:47;;;;;;;7.15;1.95;;;20.10;99.90;;;;;;5058202;28;20044;-79
2023/08/04 11:18:24;;;;;;;6.05;1.58;;;20.20;99.90;;;;;;5077008;28;20032;-79
2023/08/04 11:20:50;;;;;;;6.85;1.60;;;20.20;99.90;;;;;;5058625;28;20295;-79
2023/08/04 11:23:26;;;;;;;6.57;1.50;;;20.20;99.90;;;;;;5059308;28;20055;-78
2023/08/04 11:25:53;;;;;;;6.05;1.80;;;20.30;99.90;;;;;;5066019;28;20032;-79
2023/08/04 11:28:20;;;;;;;5.13;1.38;;;20.40;99.90;;;;;;5077934;28;20040;-79
2023/08/04 11:30:46;;;;;;;6.57;1.75;;;20.60;99.90;;;;;;5061923;28;20052;-79
2023/08/04 11:33:11;;;;;;;5.40;1.50;;;20.60;99.90;;;;;;5066954;28;20210;-79
2023/08/04 11:35:38;;;;;;;6.70;1.67;;;20.60;99.90;;;;;;5076503;28;20274;-78
2023/08/04 11:38:04;;;;;;;7.93;1.63;;;20.60;99.90;;;;;;5067895;28;20099;-80
2023/08/04 11:40:30;;;;;;;6.15;1.48;;;20.80;99.90;;;;;;5039664;28;20206;-79
2023/08/04 11:42:59;;;;;;;7.75;1.70;;;20.90;99.90;;;;;;5077409;28;20254;-78
2023/08/04 11:45:30;;;;;;;7.35;1.70;;;21.10;99.90;;;;;;5075828;28;20282;-78
2023/08/04 11:47:57;;;;;;;8.57;2.20;;;21.20;99.90;;;;;;5074787;28;20058;-79
2023/08/04 11:50:24;;;;;;;6.75;1.80;;;21.20;99.90;;;;;;5057452;28;20039;-78
2023/08/04 11:52:51;;;;;;;7.20;2.03;;;21.00;99.90;;;;;;5072185;28;20091;-78
2023/08/04 11:55:17;;;;;;;7.45;1.88;;;20.70;99.90;;;;;;5076469;28;20115;-79
2023/08/04 11:57:50;;;;;;;9.15;1.83;;;20.40;99.90;;;;;;5063730;28;20234;-78
2023/08/04 12:00:16;;;;;;;6.75;1.80;;;20.30;99.90;;;;;;5058345;28;20028;-79
2023/08/04 12:03:03;;;;;;;6.45;1.92;;;20.20;99.90;;;;;;5078448;27;20028;-78
2023/08/04 12:05:31;;;;;;;7.78;2.20;;;20.20;99.90;;;;;;5061773;28;20046;-79
2023/08/04 12:07:58;;;;;;;8.50;2.35;;;20.10;99.90;;;;;;5078330;28;20036;-79
2023/08/04 12:10:24;;;;;;;5.60;1.60;;;20.10;99.90;;;;;;5063586;28;20024;-78
2023/08/04 12:12:50;;;;;;;4.88;1.50;;;20.10;99.90;;;;;;5079548;28;20174;-79
2023/08/04 12:15:16;;;;;;;4.80;1.58;;;20.00;99.90;;;;;;5076758;28;20078;-79
2023/08/04 12:17:43;;;;;;;7.53;1.75;;;20.00;99.90;;;;;;5080234;28;20063;-79
2023/08/04 12:20:10;;;;;;;7.85;1.85;;;19.90;99.90;;;;;;5081511;28;20043;-78
2023/08/04 12:22:37;;;;;;;8.65;2.05;;;20.10;99.90;;;;;;5054970;28;20106;-79
2023/08/04 12:25:07;;;;;;;8.15;2.20;;;20.10;99.90;;;;;;5091626;28;20070;-78
2023/08/04 12:27:34;;;;;;;5.88;1.73;;;20.10;99.90;;;;;;5077597;28;20182;-78
2023/08/04 12:30:00;;;;;;;7.63;2.10;;;20.20;99.90;;;;;;5063115;28;20111;-78
2023/08/04 12:32:26;;;;;;;6.38;1.67;;;20.20;99.90;;;;;;5078258;28;20066;-78
2023/08/04 12:34:52;;;;;;;5.07;1.50;;;20.30;99.90;;;;;;5061595;28;20099;-79
2023/08/04 12:37:18;;;;;;;6.90;1.70;;;20.40;99.90;;;;;;5047882;28;20082;-78
2023/08/04 12:39:46;;;;;;;6.80;1.70;;;20.40;99.90;;;;;;5062680;28;20051;-79
2023/08/04 12:42:12;;;;;;;5.15;1.60;;;20.50;99.90;;;;;;5077809;28;20234;-79
2023/08/04 12:44:38;;;;;;;7.40;1.77;;;20.60;99.90;;;;;;5074380;28;20055;-78